Time;durP1;ratioP1;P1;durP2;ratioP2;P2;SDS_P1;SDS_P2;PMS_P1;PMS_P2;Temp;Humidity;BMP_temperature;BMP_pressure;BME280_temperature;BME280_humidity;BME280_pressure;Samples;Min_cycle;Max_cycle;Signal;HPM_P1;HPM_P2
2022/06/07 00:02:06;;;;;;;1.55;0.93;;;;;;;;;;5031368;28;20022;-39
2022/06/07 00:04:32;;;;;;;2.17;1.00;;;;;;;;;;5030974;28;20099;-40
2022/06/07 00:06:57;;;;;;;0.82;0.68;;;;;;;;;;5031207;28;20024;-39
2022/06/07 00:09:23;;;;;;;1.02;0.90;;;;;;;;;;5031270;28;20087;-39
2022/06/07 00:11:48;;;;;;;2.00;0.95;;;;;;;;;;5031204;28;20100;-39
2022/06/07 00:14:14;;;;;;;1.70;1.05;;;;;;;;;;5031093;28;20026;-39
2022/06/07 00:16:39;;;;;;;1.67;1.10;;;;;;;;;;5031076;28;20021;-40
2022/06/07 00:19:04;;;;;;;1.27;0.63;;;;;;;;;;5031146;28;20025;-40
2022/06/07 00:21:30;;;;;;;2.65;1.23;;;;;;;;;;5030964;28;20026;-40
2022/06/07 00:23:55;;;;;;;1.58;0.90;;;;;;;;;;5031201;28;20038;-39
2022/06/07 00:26:21;;;;;;;1.92;1.35;;;;;;;;;;5030876;28;20534;-41
2022/06/07 00:28:47;;;;;;;0.93;0.90;;;;;;;;;;5030794;28;20072;-40
2022/06/07 00:31:13;;;;;;;2.53;1.23;;;;;;;;;;5013199;28;20028;-39
2022/06/07 00:33:38;;;;;;;1.50;0.85;;;;;;;;;;5030778;28;20042;-40
2022/06/07 00:36:04;;;;;;;1.00;0.90;;;;;;;;;;5031105;28;20407;-39
2022/06/07 00:38:30;;;;;;;1.30;1.00;;;;;;;;;;5031039;28;20029;-40
2022/06/07 00:40:56;;;;;;;1.25;0.75;;;;;;;;;;5013073;28;20357;-39
2022/06/07 00:43:23;;;;;;;1.30;1.05;;;;;;;;;;5030866;28;20037;-39
2022/06/07 00:45:48;;;;;;;1.35;1.00;;;;;;;;;;5030647;28;20531;-40
2022/06/07 00:48:15;;;;;;;9.57;1.73;;;;;;;;;;4996665;28;20091;-39
2022/06/07 00:50:52;;;;;;;2.35;1.10;;;;;;;;;;5030710;28;20022;-40
2022/06/07 00:53:31;;;;;;;1.67;1.20;;;;;;;;;;5012827;28;20776;-39
2022/06/07 00:56:06;;;;;;;1.63;1.00;;;;;;;;;;5013017;28;20399;-39
2022/06/07 00:58:32;;;;;;;4.72;0.80;;;;;;;;;;5034209;28;20026;-39
2022/06/07 01:00:59;;;;;;;0.80;0.80;;;;;;;;;;5016582;28;20080;-40
2022/06/07 01:03:25;;;;;;;8.52;1.27;;;;;;;;;;5033960;28;20511;-40
2022/06/07 01:05:53;;;;;;;1.00;0.82;;;;;;;;;;5016455;28;20034;-39
2022/06/07 01:11:12;;;;;;;1.85;1.63;;;;;;;;;;5016627;28;20120;-39
2022/06/07 01:13:37;;;;;;;1.05;0.95;;;;;;;;;;5033811;28;20224;-39
2022/06/07 01:16:09;;;;;;;1.15;0.95;;;;;;;;;;5034032;28;20083;-39
2022/06/07 01:18:38;;;;;;;1.77;1.10;;;;;;;;;;5016038;28;20445;-39
2022/06/07 01:21:20;;;;;;;1.27;1.17;;;;;;;;;;5016099;28;20026;-39
2022/06/07 01:23:46;;;;;;;2.00;1.23;;;;;;;;;;5032514;28;20030;-40
2022/06/07 01:26:14;;;;;;;2.28;1.02;;;;;;;;;;5016050;28;20024;-39
2022/06/07 01:28:40;;;;;;;2.17;1.25;;;;;;;;;;5015833;28;20381;-39
2022/06/07 01:31:07;;;;;;;3.03;0.98;;;;;;;;;;5016028;28;20112;-39
2022/06/07 01:33:32;;;;;;;2.17;1.25;;;;;;;;;;5033524;28;20461;-39
2022/06/07 01:36:01;;;;;;;1.50;0.95;;;;;;;;;;5033642;28;20013;-39
2022/06/07 01:38:26;;;;;;;2.10;1.02;;;;;;;;;;5033704;28;20431;-41
2022/06/07 01:43:36;;;;;;;1.83;1.20;;;;;;;;;;5033496;28;20029;-40
2022/06/07 01:46:04;;;;;;;2.85;1.25;;;;;;;;;;5033605;28;20522;-39
2022/06/07 01:48:29;;;;;;;1.13;1.02;;;;;;;;;;5033505;28;20033;-40
2022/06/07 01:51:02;;;;;;;1.00;0.90;;;;;;;;;;5015502;28;20460;-40
2022/06/07 01:53:29;;;;;;;1.13;0.90;;;;;;;;;;5015447;28;20056;-40
2022/06/07 01:56:04;;;;;;;2.15;1.10;;;;;;;;;;5015433;28;20017;-40
2022/06/07 01:58:31;;;;;;;1.45;1.08;;;;;;;;;;5015364;28;20507;-39
2022/06/07 02:00:57;;;;;;;1.65;1.20;;;;;;;;;;5015354;28;20024;-40
2022/06/07 02:03:23;;;;;;;2.60;1.63;;;;;;;;;;5031634;28;20049;-40
2022/06/07 02:05:56;;;;;;;1.40;1.20;;;;;;;;;;5015261;28;20369;-39
2022/06/07 02:08:23;;;;;;;1.17;1.08;;;;;;;;;;5032356;28;20022;-39
2022/06/07 02:10:48;;;;;;;1.48;0.90;;;;;;;;;;5015040;28;20388;-40
2022/06/07 02:13:17;;;;;;;1.85;1.02;;;;;;;;;;5015168;28;20068;-39
2022/06/07 02:15:42;;;;;;;1.77;0.90;;;;;;;;;;5015016;28;20468;-40
2022/06/07 02:18:08;;;;;;;2.40;1.33;;;;;;;;;;5014974;28;20495;-40
2022/06/07 02:21:06;;;;;;;2.28;1.13;;;;;;;;;;5016941;28;20448;-40
2022/06/07 02:23:33;;;;;;;3.03;1.10;;;;;;;;;;5014840;28;20064;-39
2022/06/07 02:26:01;;;;;;;1.35;1.20;;;;;;;;;;5014890;28;20136;-39
2022/06/07 02:28:29;;;;;;;4.00;0.95;;;;;;;;;;5032590;28;20041;-40
2022/06/07 02:30:57;;;;;;;2.45;1.02;;;;;;;;;;5014817;28;20559;-41
2022/06/07 02:33:23;;;;;;;2.40;1.45;;;;;;;;;;5032697;28;20048;-39
2022/06/07 02:35:49;;;;;;;1.55;1.00;;;;;;;;;;5014647;28;20013;-39
2022/06/07 02:38:14;;;;;;;1.52;1.05;;;;;;;;;;5032460;28;20022;-39
2022/06/07 02:40:40;;;;;;;1.08;0.90;;;;;;;;;;5014655;28;20021;-39
2022/06/07 02:43:06;;;;;;;1.35;1.13;;;;;;;;;;5014584;28;20471;-39
2022/06/07 02:45:31;;;;;;;1.08;0.98;;;;;;;;;;5032197;28;20033;-40
2022/06/07 02:47:56;;;;;;;2.35;1.45;;;;;;;;;;5014529;28;20029;-39
2022/06/07 02:50:22;;;;;;;1.45;1.05;;;;;;;;;;5032573;28;20018;-39
2022/06/07 02:52:50;;;;;;;1.50;1.40;;;;;;;;;;5014319;28;20094;-39
2022/06/07 02:55:20;;;;;;;1.95;1.13;;;;;;;;;;5014449;28;20449;-40
2022/06/07 02:57:48;;;;;;;1.33;1.23;;;;;;;;;;5032028;28;20034;-39
2022/06/07 03:00:18;;;;;;;0.85;0.82;;;;;;;;;;5030648;28;20021;-39
2022/06/07 03:02:44;;;;;;;1.35;0.95;;;;;;;;;;5014061;28;20618;-40
2022/06/07 03:05:11;;;;;;;1.45;1.30;;;;;;;;;;5014180;28;20526;-39
2022/06/07 03:07:37;;;;;;;1.90;1.10;;;;;;;;;;5030497;28;20025;-39
2022/06/07 03:10:04;;;;;;;3.40;1.17;;;;;;;;;;5014200;28;20087;-39
2022/06/07 03:12:32;;;;;;;2.55;1.10;;;;;;;;;;5013848;28;20037;-39
2022/06/07 03:14:58;;;;;;;1.50;1.15;;;;;;;;;;5030496;28;20032;-40
2022/06/07 03:17:24;;;;;;;1.83;1.00;;;;;;;;;;5013991;28;20464;-39
2022/06/07 03:19:50;;;;;;;1.85;1.27;;;;;;;;;;5013714;28;20021;-39
2022/06/07 03:22:17;;;;;;;1.60;1.00;;;;;;;;;;5013915;28;20436;-40
2022/06/07 03:24:44;;;;;;;3.10;1.02;;;;;;;;;;5013784;28;20067;-40
2022/06/07 03:27:11;;;;;;;1.45;1.15;;;;;;;;;;5013894;28;20029;-39
2022/06/07 03:29:37;;;;;;;1.58;0.90;;;;;;;;;;5013656;28;20124;-39
2022/06/07 03:32:04;;;;;;;2.55;1.42;;;;;;;;;;5031583;28;20061;-39
2022/06/07 03:34:29;;;;;;;1.20;1.10;;;;;;;;;;5013790;28;20091;-40
2022/06/07 03:36:55;;;;;;;1.95;1.77;;;;;;;;;;4997381;28;20117;-39
2022/06/07 03:39:22;;;;;;;5.05;1.45;;;;;;;;;;5013726;28;20368;-39
2022/06/07 03:41:53;;;;;;;1.70;1.02;;;;;;;;;;5013555;28;20071;-39
2022/06/07 03:44:23;;;;;;;1.77;1.20;;;;;;;;;;5031366;28;20481;-39
2022/06/07 03:46:54;;;;;;;1.25;0.98;;;;;;;;;;5013563;28;20762;-39
2022/06/07 03:49:20;;;;;;;2.13;1.10;;;;;;;;;;5031330;28;20033;-39
2022/06/07 03:51:49;;;;;;;3.53;1.08;;;;;;;;;;5013566;28;20072;-40
2022/06/07 03:54:16;;;;;;;0.95;0.90;;;;;;;;;;5013475;28;20037;-40
2022/06/07 03:56:45;;;;;;;1.75;1.17;;;;;;;;;;5013313;28;20101;-40
2022/06/07 03:59:11;;;;;;;3.47;1.85;;;;;;;;;;5013453;28;20037;-39
2022/06/07 04:01:37;;;;;;;1.65;1.25;;;;;;;;;;5013399;28;20017;-40
2022/06/07 04:04:04;;;;;;;1.33;1.10;;;;;;;;;;5013257;28;20054;-40
2022/06/07 04:06:32;;;;;;;1.85;0.93;;;;;;;;;;4997036;28;20041;-39
2022/06/07 04:09:05;;;;;;;2.88;1.30;;;;;;;;;;5013463;28;20124;-40
2022/06/07 04:11:36;;;;;;;1.13;0.75;;;;;;;;;;5013238;28;20116;-40
2022/06/07 04:14:01;;;;;;;2.17;1.73;;;;;;;;;;5013342;28;20140;-40
2022/06/07 04:16:29;;;;;;;1.42;1.05;;;;;;;;;;5031257;28;20022;-40
2022/06/07 04:18:59;;;;;;;1.17;1.00;;;;;;;;;;5031276;28;20407;-40
2022/06/07 04:21:26;;;;;;;1.83;0.90;;;;;;;;;;5013325;28;20080;-40
2022/06/07 04:23:57;;;;;;;2.20;1.30;;;;;;;;;;5031015;28;20060;-40
2022/06/07 04:26:25;;;;;;;1.73;1.35;;;;;;;;;;5013214;28;20026;-39
2022/06/07 04:28:53;;;;;;;2.42;1.10;;;;;;;;;;5013305;28;20514;-39
2022/06/07 04:31:21;;;;;;;1.90;1.17;;;;;;;;;;5013735;28;20030;-39
2022/06/07 04:33:47;;;;;;;1.70;1.27;;;;;;;;;;5033297;28;20037;-39
2022/06/07 04:36:18;;;;;;;2.17;1.23;;;;;;;;;;5016971;28;20029;-40
2022/06/07 04:38:45;;;;;;;1.35;1.00;;;;;;;;;;5016816;28;20037;-41
2022/06/07 04:41:12;;;;;;;7.10;2.20;;;;;;;;;;5016891;28;20017;-40
2022/06/07 04:43:41;;;;;;;3.72;1.38;;;;;;;;;;5034788;28;20129;-39
2022/06/07 04:46:08;;;;;;;2.78;1.52;;;;;;;;;;5016758;28;20124;-40
2022/06/07 04:48:34;;;;;;;1.55;1.27;;;;;;;;;;5033222;28;20045;-39
2022/06/07 04:51:15;;;;;;;3.63;0.95;;;;;;;;;;5016785;28;20029;-40
2022/06/07 04:53:45;;;;;;;1.75;1.45;;;;;;;;;;5016509;28;20038;-39
2022/06/07 04:56:22;;;;;;;1.58;1.00;;;;;;;;;;5016593;28;20021;-39
2022/06/07 04:58:48;;;;;;;1.90;1.40;;;;;;;;;;5034358;28;20037;-39
2022/06/07 05:01:18;;;;;;;45.83;3.15;;;;;;;;;;5016434;28;20029;-40
2022/06/07 05:03:44;;;;;;;6.10;1.42;;;;;;;;;;5033963;28;20053;-40
2022/06/07 05:06:17;;;;;;;4.38;2.22;;;;;;;;;;5016324;28;20044;-40
2022/06/07 05:08:45;;;;;;;2.28;1.20;;;;;;;;;;5016272;28;20033;-40
2022/06/07 05:11:11;;;;;;;1.45;1.35;;;;;;;;;;5034369;28;20017;-39
2022/06/07 05:13:37;;;;;;;2.38;1.48;;;;;;;;;;5016194;28;20465;-39
2022/06/07 05:16:04;;;;;;;2.30;1.45;;;;;;;;;;5016190;28;20025;-39
2022/06/07 05:18:30;;;;;;;1.58;1.15;;;;;;;;;;5034118;28;20037;-39
2022/06/07 05:20:56;;;;;;;3.53;1.60;;;;;;;;;;5034242;28;20422;-39
2022/06/07 05:23:21;;;;;;;2.33;1.13;;;;;;;;;;5016254;28;20033;-39
2022/06/07 05:25:53;;;;;;;1.53;1.20;;;;;;;;;;5016072;28;20463;-39
2022/06/07 05:28:20;;;;;;;1.80;1.08;;;;;;;;;;5032569;28;20048;-39
2022/06/07 05:30:46;;;;;;;1.80;1.40;;;;;;;;;;5015851;28;20026;-39
2022/06/07 05:33:20;;;;;;;2.35;1.20;;;;;;;;;;5015906;28;20051;-39
2022/06/07 05:35:52;;;;;;;4.55;1.33;;;;;;;;;;5015451;28;20033;-39
2022/06/07 05:38:21;;;;;;;2.47;1.35;;;;;;;;;;5033695;28;20143;-40
2022/06/07 05:41:05;;;;;;;1.60;1.08;;;;;;;;;;5015861;28;20468;-39
2022/06/07 05:43:32;;;;;;;3.78;1.33;;;;;;;;;;5014354;28;20130;-39
2022/06/07 05:45:59;;;;;;;4.20;1.40;;;;;;;;;;5015605;28;20022;-39
2022/06/07 05:48:51;;;;;;;2.72;1.30;;;;;;;;;;5030238;28;20522;-39
2022/06/07 05:51:24;;;;;;;1.73;1.13;;;;;;;;;;5000435;28;20033;-39
2022/06/07 05:53:54;;;;;;;1.75;1.08;;;;;;;;;;5031925;28;20045;-39
2022/06/07 05:56:22;;;;;;;2.17;1.20;;;;;;;;;;5015553;28;20029;-39
2022/06/07 05:58:48;;;;;;;2.33;1.30;;;;;;;;;;5015326;28;20044;-39
2022/06/07 06:01:14;;;;;;;1.83;1.13;;;;;;;;;;5015388;28;20068;-39
2022/06/07 06:03:43;;;;;;;1.65;1.40;;;;;;;;;;5033043;28;20057;-39
2022/06/07 06:06:11;;;;;;;2.33;1.45;;;;;;;;;;5015232;28;20029;-39
2022/06/07 06:11:31;;;;;;;1.85;1.45;;;;;;;;;;5015099;28;20029;-39
2022/06/07 06:14:07;;;;;;;1.60;1.00;;;;;;;;;;5015151;28;20038;-39
2022/06/07 06:16:37;;;;;;;1.50;1.13;;;;;;;;;;5015015;28;20195;-40
2022/06/07 06:19:03;;;;;;;7.22;1.40;;;;;;;;;;5015146;28;20112;-40
2022/06/07 06:21:35;;;;;;;;;;;;;;;;;;5015395;28;20026;-39
2022/06/07 06:24:02;;;;;;;4.20;1.10;;;;;;;;;;5014982;28;20256;-39
2022/06/07 06:26:28;;;;;;;1.75;1.20;;;;;;;;;;5014925;28;20028;-40
2022/06/07 06:28:55;;;;;;;1.05;0.95;;;;;;;;;;5015041;28;20029;-40
2022/06/07 06:31:22;;;;;;;2.03;1.00;;;;;;;;;;5014914;28;20056;-39
2022/06/07 06:33:49;;;;;;;1.80;1.30;;;;;;;;;;5014591;28;20045;-39
2022/06/07 06:36:24;;;;;;;2.92;1.02;;;;;;;;;;5014740;28;20499;-40
2022/06/07 06:38:50;;;;;;;1.38;1.27;;;;;;;;;;5014602;28;20052;-40
2022/06/07 06:41:19;;;;;;;1.02;0.93;;;;;;;;;;5014622;28;20389;-40
2022/06/07 06:43:47;;;;;;;1.80;0.90;;;;;;;;;;5031036;28;20029;-40
2022/06/07 06:46:29;;;;;;;1.35;1.02;;;;;;;;;;5014620;28;20068;-39
2022/06/07 06:48:56;;;;;;;1.83;1.65;;;;;;;;;;5014529;28;20069;-40
2022/06/07 06:51:25;;;;;;;4.68;1.75;;;;;;;;;;5014559;28;20072;-39
2022/06/07 06:53:52;;;;;;;4.15;1.60;;;;;;;;;;5031815;28;20042;-40
2022/06/07 06:56:31;;;;;;;1.48;1.23;;;;;;;;;;5014388;28;20048;-40
2022/06/07 06:59:02;;;;;;;4.65;1.17;;;;;;;;;;5014316;28;20025;-39
2022/06/07 07:01:31;;;;;;;1.38;1.17;;;;;;;;;;5032065;28;20034;-40
2022/06/07 07:04:03;;;;;;;1.10;1.00;;;;;;;;;;5030517;28;20075;-39
2022/06/07 07:06:29;;;;;;;1.25;1.15;;;;;;;;;;5031806;28;20045;-39
2022/06/07 07:08:55;;;;;;;1.02;0.80;;;;;;;;;;5014184;28;20493;-39
2022/06/07 07:11:24;;;;;;;5.97;1.60;;;;;;;;;;5031839;28;20038;-39
2022/06/07 07:13:54;;;;;;;0.82;0.70;;;;;;;;;;5013902;28;20033;-40
2022/06/07 07:16:23;;;;;;;2.17;0.80;;;;;;;;;;5013904;28;20511;-39
2022/06/07 07:18:49;;;;;;;1.10;1.00;;;;;;;;;;5030449;28;20028;-39
2022/06/07 07:21:35;;;;;;;2.33;1.25;;;;;;;;;;5031762;28;20029;-39
2022/06/07 07:24:08;;;;;;;1.20;1.10;;;;;;;;;;5014013;28;20037;-39
2022/06/07 07:26:37;;;;;;;1.23;0.80;;;;;;;;;;5013741;28;20425;-39
2022/06/07 07:29:05;;;;;;;2.80;0.82;;;;;;;;;;5031563;28;20495;-39
2022/06/07 07:31:36;;;;;;;1.35;0.90;;;;;;;;;;5031518;28;20030;-39
2022/06/07 07:34:04;;;;;;;3.75;0.80;;;;;;;;;;5013663;28;20124;-39
2022/06/07 07:36:31;;;;;;;1.67;1.00;;;;;;;;;;5013604;28;20029;-39
2022/06/07 07:38:58;;;;;;;1.80;0.82;;;;;;;;;;5031437;28;20026;-41
2022/06/07 07:41:25;;;;;;;1.25;0.80;;;;;;;;;;5031452;28;20013;-39
2022/06/07 07:43:51;;;;;;;2.40;0.93;;;;;;;;;;5031301;28;20116;-39
2022/06/07 07:46:22;;;;;;;2.25;0.98;;;;;;;;;;5013573;28;20072;-39
2022/06/07 07:48:48;;;;;;;1.00;0.90;;;;;;;;;;5013556;28;20040;-39
2022/06/07 07:51:24;;;;;;;4.32;1.13;;;;;;;;;;5013573;28;20013;-40
2022/06/07 07:53:52;;;;;;;0.77;0.77;;;;;;;;;;5029880;28;20045;-39
2022/06/07 07:56:20;;;;;;;2.90;1.25;;;;;;;;;;4997314;28;20021;-39
2022/06/07 07:58:47;;;;;;;1.08;0.70;;;;;;;;;;5013424;28;20053;-40
2022/06/07 08:01:15;;;;;;;2.78;0.95;;;;;;;;;;5029879;28;20022;-39
2022/06/07 08:03:41;;;;;;;1.58;0.98;;;;;;;;;;5013211;28;20091;-41
2022/06/07 08:06:09;;;;;;;1.15;0.77;;;;;;;;;;5030026;28;20053;-39
2022/06/07 08:08:34;;;;;;;1.05;0.65;;;;;;;;;;5035192;28;20037;-39
2022/06/07 08:11:00;;;;;;;2.25;1.25;;;;;;;;;;5035113;28;20017;-40
2022/06/07 08:13:26;;;;;;;1.33;0.80;;;;;;;;;;5035325;28;20042;-39
2022/06/07 08:15:52;;;;;;;2.97;0.70;;;;;;;;;;5035077;28;20028;-39
2022/06/07 08:18:18;;;;;;;2.55;0.80;;;;;;;;;;5035131;28;20038;-39
2022/06/07 08:20:43;;;;;;;1.17;0.90;;;;;;;;;;5034988;28;20105;-40
2022/06/07 08:23:10;;;;;;;0.77;0.77;;;;;;;;;;5017313;28;20029;-39
2022/06/07 08:25:38;;;;;;;1.75;0.90;;;;;;;;;;5035090;28;20096;-40
2022/06/07 08:28:05;;;;;;;0.60;0.52;;;;;;;;;;5034922;28;20064;-40
2022/06/07 08:30:32;;;;;;;1.52;0.90;;;;;;;;;;5034808;28;20022;-40
2022/06/07 08:32:58;;;;;;;0.60;0.60;;;;;;;;;;5034761;28;20403;-40
2022/06/07 08:38:09;;;;;;;2.17;0.95;;;;;;;;;;5035129;28;20392;-39
2022/06/07 08:40:42;;;;;;;0.88;0.70;;;;;;;;;;5034865;28;20051;-40
2022/06/07 08:43:13;;;;;;;3.15;1.25;;;;;;;;;;5034722;28;20493;-39
2022/06/07 08:45:40;;;;;;;0.90;0.70;;;;;;;;;;5034440;28;20095;-40
2022/06/07 08:48:11;;;;;;;2.38;0.70;;;;;;;;;;5034496;28;20104;-40
2022/06/07 08:50:40;;;;;;;0.55;0.45;;;;;;;;;;5034730;28;20056;-39
2022/06/07 08:53:15;;;;;;;0.93;0.73;;;;;;;;;;5034662;28;20516;-48
2022/06/07 08:55:43;;;;;;;1.67;0.60;;;;;;;;;;5034270;28;20029;-40
2022/06/07 08:58:20;;;;;;;2.42;1.00;;;;;;;;;;5034341;28;20029;-40
2022/06/07 09:00:48;;;;;;;3.05;0.70;;;;;;;;;;5034272;28;20030;-39
2022/06/07 09:03:14;;;;;;;1.75;0.85;;;;;;;;;;5033981;28;20129;-39
2022/06/07 09:05:39;;;;;;;1.15;0.70;;;;;;;;;;5034212;28;20112;-39
2022/06/07 09:08:05;;;;;;;4.65;1.13;;;;;;;;;;5034149;28;20120;-39
2022/06/07 09:13:20;;;;;;;2.80;0.93;;;;;;;;;;5034103;28;20034;-39
2022/06/07 09:15:47;;;;;;;3.83;0.75;;;;;;;;;;5034248;28;20022;-40
2022/06/07 09:18:15;;;;;;;1.23;0.63;;;;;;;;;;5033651;28;20456;-39
2022/06/07 09:20:42;;;;;;;5.63;0.88;;;;;;;;;;5033841;28;20769;-39
2022/06/07 09:23:14;;;;;;;5.13;1.25;;;;;;;;;;5034129;28;20034;-39
2022/06/07 09:25:45;;;;;;;1.15;1.02;;;;;;;;;;5033890;28;20030;-39
2022/06/07 09:28:19;;;;;;;1.48;1.05;;;;;;;;;;5034068;28;20045;-40
2022/06/07 09:30:46;;;;;;;1.13;0.68;;;;;;;;;;5033864;28;20032;-40
2022/06/07 09:33:23;;;;;;;2.20;0.75;;;;;;;;;;5033709;28;20033;-39
2022/06/07 09:35:50;;;;;;;1.10;1.00;;;;;;;;;;5033460;28;20017;-39
2022/06/07 09:38:17;;;;;;;3.72;0.95;;;;;;;;;;5015825;28;20071;-39
2022/06/07 09:41:36;;;;;;;0.95;0.70;;;;;;;;;;5033492;28;20110;-39
2022/06/07 09:44:21;;;;;;;0.95;0.93;;;;;;;;;;4972299;28;20194;-39
2022/06/07 09:46:48;;;;;;;1.20;0.75;;;;;;;;;;4972150;28;20045;-39
2022/06/07 09:49:28;;;;;;;3.05;0.70;;;;;;;;;;5015294;28;20476;-39
2022/06/07 09:51:56;;;;;;;1.52;1.23;;;;;;;;;;5033296;28;20025;-41
2022/06/07 09:54:22;;;;;;;2.03;0.80;;;;;;;;;;5033303;28;20037;-39
2022/06/07 09:56:56;;;;;;;2.67;1.08;;;;;;;;;;5033305;28;20036;-39
2022/06/07 09:59:25;;;;;;;1.30;0.57;;;;;;;;;;5033246;28;20039;-39
2022/06/07 10:01:56;;;;;;;0.77;0.65;;;;;;;;;;5033225;28;20037;-40
2022/06/07 10:04:31;;;;;;;0.90;0.60;;;;;;;;;;5033022;28;20108;-39
2022/06/07 10:07:02;;;;;;;3.90;0.77;;;;;;;;;;5033036;28;20032;-40
2022/06/07 10:09:30;;;;;;;1.00;0.63;;;;;;;;;;5033268;28;20057;-40
2022/06/07 10:12:14;;;;;;;1.30;0.65;;;;;;;;;;5033053;28;20464;-40
2022/06/07 10:14:45;;;;;;;0.75;0.70;;;;;;;;;;5032881;28;20057;-39
2022/06/07 10:17:29;;;;;;;0.82;0.70;;;;;;;;;;5032993;28;20033;-39
2022/06/07 10:19:55;;;;;;;0.80;0.73;;;;;;;;;;5032862;28;20120;-39
2022/06/07 10:22:20;;;;;;;0.70;0.70;;;;;;;;;;5032774;28;20105;-39
2022/06/07 10:25:09;;;;;;;3.00;0.77;;;;;;;;;;5032770;28;20083;-40
2022/06/07 10:27:42;;;;;;;0.70;0.70;;;;;;;;;;5032813;28;20026;-39
2022/06/07 10:30:15;;;;;;;1.52;0.57;;;;;;;;;;5031991;28;20045;-39
2022/06/07 10:32:59;;;;;;;1.45;0.80;;;;;;;;;;5031206;28;20140;-38
2022/06/07 10:35:30;;;;;;;4.30;0.73;;;;;;;;;;5032556;28;20086;-39
2022/06/07 10:38:06;;;;;;;2.17;0.80;;;;;;;;;;5032429;28;20069;-39
2022/06/07 10:40:41;;;;;;;0.95;0.60;;;;;;;;;;5032768;28;20025;-39
2022/06/07 10:43:22;;;;;;;0.70;0.47;;;;;;;;;;5032364;28;20471;-39
2022/06/07 10:45:49;;;;;;;0.70;0.60;;;;;;;;;;5032311;28;20121;-39
2022/06/07 10:48:21;;;;;;;1.00;0.70;;;;;;;;;;5014809;28;20028;-39
2022/06/07 10:51:06;;;;;;;0.50;0.47;;;;;;;;;;5032166;28;20037;-40
2022/06/07 10:53:39;;;;;;;9.57;1.02;;;;;;;;;;5031731;28;20496;-40
2022/06/07 10:56:22;;;;;;;0.70;0.40;;;;;;;;;;5032051;28;20021;-40
2022/06/07 10:58:49;;;;;;;1.05;0.80;;;;;;;;;;5032116;28;20533;-42
2022/06/07 11:01:41;;;;;;;0.63;0.57;;;;;;;;;;5032134;28;20108;-39
2022/06/07 11:09:19;;;;;;;3.83;0.75;;;;;;;;;;5028800;28;20038;-40
2022/06/07 11:10:01;;;;;;;1.20;0.90;;;;;;;;;;4977857;28;20070;-39
2022/06/07 11:12:30;;;;;;;3.25;0.80;;;;;;;;;;5031654;28;20353;-40
2022/06/07 11:15:02;;;;;;;0.60;0.60;;;;;;;;;;5031927;28;20029;-39
2022/06/07 11:17:30;;;;;;;2.25;0.82;;;;;;;;;;5031724;28;20057;-39
2022/06/07 11:19:59;;;;;;;0.70;0.52;;;;;;;;;;5031779;28;20021;-39
2022/06/07 11:22:30;;;;;;;1.15;0.47;;;;;;;;;;5031775;28;20056;-39
2022/06/07 11:24:59;;;;;;;1.50;0.73;;;;;;;;;;5031517;28;20034;-40
2022/06/07 11:27:26;;;;;;;0.70;0.70;;;;;;;;;;5031589;28;20045;-39
2022/06/07 11:30:10;;;;;;;0.90;0.60;;;;;;;;;;5031760;28;20468;-39
2022/06/07 11:32:47;;;;;;;1.40;1.10;;;;;;;;;;5031320;28;20596;-39
2022/06/07 11:35:34;;;;;;;0.70;0.60;;;;;;;;;;5031723;28;20037;-39
2022/06/07 11:38:11;;;;;;;0.50;0.50;;;;;;;;;;5001462;28;20033;-40
2022/06/07 11:40:37;;;;;;;0.95;0.50;;;;;;;;;;5031329;28;20037;-40
2022/06/07 11:43:03;;;;;;;0.80;0.60;;;;;;;;;;5013723;28;20436;-39
2022/06/07 11:45:29;;;;;;;0.80;0.77;;;;;;;;;;5013819;28;20076;-40
2022/06/07 11:48:03;;;;;;;0.60;0.50;;;;;;;;;;5031194;28;20021;-39
2022/06/07 11:50:47;;;;;;;1.40;0.82;;;;;;;;;;5031310;28;20069;-39
2022/06/07 11:53:22;;;;;;;1.30;0.90;;;;;;;;;;5013503;28;20087;-39
2022/06/07 11:55:51;;;;;;;1.20;1.05;;;;;;;;;;5031478;28;20087;-39
2022/06/07 11:58:36;;;;;;;1.25;0.60;;;;;;;;;;5031206;28;20022;-39
2022/06/07 12:01:21;;;;;;;0.93;0.68;;;;;;;;;;5031068;28;20128;-39
2022/06/07 12:04:05;;;;;;;1.52;0.80;;;;;;;;;;5031020;28;20084;-39
2022/06/07 12:06:31;;;;;;;1.25;0.63;;;;;;;;;;5031148;28;20022;-39
2022/06/07 12:08:59;;;;;;;0.57;0.52;;;;;;;;;;5030997;28;20079;-40
2022/06/07 12:11:26;;;;;;;0.63;0.63;;;;;;;;;;5031036;28;20507;-39
2022/06/07 12:13:58;;;;;;;1.17;0.63;;;;;;;;;;5031185;28;20440;-39
2022/06/07 12:16:59;;;;;;;0.80;0.50;;;;;;;;;;5031202;28;20122;-39
2022/06/07 12:19:26;;;;;;;5.07;1.00;;;;;;;;;;4969902;28;20042;-40
2022/06/07 12:21:54;;;;;;;0.85;0.55;;;;;;;;;;5018660;28;20035;-39
2022/06/07 12:24:20;;;;;;;1.75;0.90;;;;;;;;;;5031051;28;20040;-40
2022/06/07 12:26:47;;;;;;;0.60;0.57;;;;;;;;;;5031178;28;20028;-39
2022/06/07 12:29:23;;;;;;;0.85;0.70;;;;;;;;;;5030890;28;20030;-39
2022/06/07 12:31:49;;;;;;;1.73;0.70;;;;;;;;;;5030883;28;20487;-39
2022/06/07 12:34:19;;;;;;;1.30;0.88;;;;;;;;;;5030857;28;20030;-39
2022/06/07 12:36:49;;;;;;;1.65;0.70;;;;;;;;;;5030688;28;20029;-39
2022/06/07 12:39:15;;;;;;;1.17;0.68;;;;;;;;;;5031193;28;20037;-39
2022/06/07 12:42:03;;;;;;;1.15;0.60;;;;;;;;;;5030836;28;20022;-39
2022/06/07 12:44:30;;;;;;;1.45;0.90;;;;;;;;;;5030798;28;20037;-39
2022/06/07 12:46:57;;;;;;;3.70;0.93;;;;;;;;;;5030926;28;20024;-39
2022/06/07 12:49:25;;;;;;;1.52;1.23;;;;;;;;;;5030838;28;20033;-39
2022/06/07 12:52:13;;;;;;;1.60;0.60;;;;;;;;;;5030914;28;20427;-39
2022/06/07 12:54:39;;;;;;;3.65;0.80;;;;;;;;;;5034359;28;20380;-39
2022/06/07 12:57:14;;;;;;;2.97;0.65;;;;;;;;;;5034291;28;20023;-39
2022/06/07 12:59:50;;;;;;;2.22;0.80;;;;;;;;;;5034357;28;20033;-39
2022/06/07 13:02:18;;;;;;;1.75;0.80;;;;;;;;;;5034395;28;20029;-39
2022/06/07 13:04:48;;;;;;;1.02;0.88;;;;;;;;;;5016319;28;20056;-39
2022/06/07 13:07:14;;;;;;;1.50;0.75;;;;;;;;;;5034266;28;20033;-39
2022/06/07 13:09:39;;;;;;;0.70;0.70;;;;;;;;;;5034194;28;20096;-40
2022/06/07 13:12:06;;;;;;;1.85;0.93;;;;;;;;;;5034134;28;20025;-39
2022/06/07 13:14:32;;;;;;;1.27;0.82;;;;;;;;;;5033958;28;20036;-40
2022/06/07 13:17:10;;;;;;;1.45;0.55;;;;;;;;;;5033992;28;20025;-39
2022/06/07 13:19:40;;;;;;;2.40;0.70;;;;;;;;;;5033953;28;20116;-40
2022/06/07 13:22:14;;;;;;;1.17;0.55;;;;;;;;;;5034268;28;20388;-39
2022/06/07 13:24:41;;;;;;;1.77;0.77;;;;;;;;;;5034089;28;20159;-40
2022/06/07 13:27:43;;;;;;;3.50;0.90;;;;;;;;;;5034165;28;20037;-40
2022/06/07 13:30:13;;;;;;;1.02;0.80;;;;;;;;;;5001845;28;20152;-39
2022/06/07 13:32:39;;;;;;;0.93;0.90;;;;;;;;;;5033881;28;20033;-39
2022/06/07 13:35:18;;;;;;;1.08;0.60;;;;;;;;;;5033649;28;20049;-40
2022/06/07 13:38:01;;;;;;;2.30;1.23;;;;;;;;;;5033589;28;20059;-39
2022/06/07 13:40:28;;;;;;;0.93;0.77;;;;;;;;;;5033904;28;20026;-39
2022/06/07 13:43:22;;;;;;;0.93;0.70;;;;;;;;;;5033455;28;20041;-40
2022/06/07 13:45:51;;;;;;;1.67;0.95;;;;;;;;;;5031262;28;20034;-39
2022/06/07 13:48:19;;;;;;;0.73;0.73;;;;;;;;;;5033494;28;20029;-39
2022/06/07 13:53:47;;;;;;;0.85;0.80;;;;;;;;;;5033436;28;20045;-39
2022/06/07 13:56:17;;;;;;;1.23;0.98;;;;;;;;;;5033287;28;20021;-39
2022/06/07 13:58:53;;;;;;;3.30;1.42;;;;;;;;;;5033242;28;20042;-39
2022/06/07 14:01:22;;;;;;;0.68;0.63;;;;;;;;;;5033215;28;20029;-39
2022/06/07 14:03:51;;;;;;;0.90;0.80;;;;;;;;;;5032189;28;20049;-41
2022/06/07 14:06:29;;;;;;;1.65;1.00;;;;;;;;;;5032920;28;20468;-40
2022/06/07 14:08:55;;;;;;;1.13;0.77;;;;;;;;;;5033007;28;20026;-39
2022/06/07 14:11:24;;;;;;;1.33;1.00;;;;;;;;;;5033235;28;20096;-39
2022/06/07 14:13:50;;;;;;;1.27;1.13;;;;;;;;;;5032954;28;20041;-39
2022/06/07 14:16:20;;;;;;;1.17;0.93;;;;;;;;;;5033085;28;20033;-39
2022/06/07 14:18:46;;;;;;;1.27;1.13;;;;;;;;;;5032988;28;20038;-40
2022/06/07 14:21:12;;;;;;;1.45;1.02;;;;;;;;;;5032896;28;20040;-39
2022/06/07 14:23:37;;;;;;;0.98;0.90;;;;;;;;;;5032891;28;20112;-39
2022/06/07 14:26:06;;;;;;;1.90;0.93;;;;;;;;;;5032808;28;20484;-40
2022/06/07 14:28:32;;;;;;;2.15;1.20;;;;;;;;;;5032755;28;20033;-39
2022/06/07 14:31:01;;;;;;;3.38;1.50;;;;;;;;;;5032652;28;20376;-40
2022/06/07 14:33:28;;;;;;;7.80;2.10;;;;;;;;;;5032470;28;20034;-39
2022/06/07 14:35:54;;;;;;;2.45;1.45;;;;;;;;;;5032429;28;20348;-40
2022/06/07 14:38:23;;;;;;;3.33;1.73;;;;;;;;;;5032262;28;20033;-40
2022/06/07 14:40:50;;;;;;;9.52;2.38;;;;;;;;;;5032263;28;20056;-40
2022/06/07 14:43:19;;;;;;;8.05;2.53;;;;;;;;;;5032499;28;20029;-39
2022/06/07 14:45:48;;;;;;;12.05;2.28;;;;;;;;;;5032373;28;20028;-40
2022/06/07 14:48:23;;;;;;;5.07;2.50;;;;;;;;;;5032341;28;20033;-39
2022/06/07 14:50:49;;;;;;;5.53;1.60;;;;;;;;;;5032165;28;20108;-39
2022/06/07 14:53:16;;;;;;;6.18;2.17;;;;;;;;;;5032120;28;20164;-39
2022/06/07 14:55:42;;;;;;;6.38;1.83;;;;;;;;;;5032089;28;20032;-39
2022/06/07 14:58:08;;;;;;;10.20;2.05;;;;;;;;;;5032141;28;20013;-39
2022/06/07 15:00:34;;;;;;;7.25;2.22;;;;;;;;;;5032130;28;20361;-40
2022/06/07 15:03:02;;;;;;;5.60;2.42;;;;;;;;;;5031840;28;20041;-39
2022/06/07 15:05:31;;;;;;;6.47;1.90;;;;;;;;;;5031965;28;20025;-39
2022/06/07 15:08:02;;;;;;;3.10;1.92;;;;;;;;;;5031909;28;20036;-40
2022/06/07 15:10:32;;;;;;;4.43;1.85;;;;;;;;;;5014320;28;20380;-39
2022/06/07 15:12:58;;;;;;;9.20;1.88;;;;;;;;;;5031760;28;20021;-39
2022/06/07 15:15:23;;;;;;;2.33;1.55;;;;;;;;;;5031514;28;20030;-40
2022/06/07 15:17:54;;;;;;;5.28;1.80;;;;;;;;;;5032116;28;20415;-39
2022/06/07 15:20:23;;;;;;;10.88;2.05;;;;;;;;;;5031763;28;20056;-39